Matt Walsh — WDH3464 — position and weather

sailwx.info

Track history (hours):
 
Tides and Currents Weather Stations Pressure Air Temp Water Temp Dewpoint Dewpoint Depression Visibility Wind Speed Wind Dir Waves Ship Positions

Matt Walsh

Owner: Big Whale, Inc., Manhattan Beach, CA. More information available from US FCC via Universal Licensing System and Coast Guard Vessel Documentation Center.

Last reported at 2017-Oct-15 23:22 UTC. Time now 2017-Oct-18 18:40 UTC.
Position N 33°58' W 118°27'.

Length 20 m; draft 3.3 m.

Type: Fishing. MMSI: 367607590.

Date/timePositionNaut miles runAvg speedWind from/ knotsBaromVisibWave heightAir tempDewpointWater temp
2017-Oct-15 23:22N 33°58' W 118°27'1 0.0
2017-Oct-15 00:13N 33°58' W 118°27'0 0.5
2017-Oct-15 00:00N 33°58' W 118°27'0 0.9
2017-Oct-14 23:30N 33°59' W 118°27'2 5.0
2017-Oct-14 23:01N 33°57' W 118°29'5 9.3
2017-Oct-14 22:30N 33°56' W 118°35'2 4.3
2017-Oct-14 22:01N 33°58' W 118°35'2 4.4
2017-Oct-14 21:30N 33°58' W 118°33'4 2.3
2017-Oct-14 19:34N 33°57' W 118°28'1 8.7
2017-Oct-14 19:30N 33°56' W 118°28'4 8.1
2017-Oct-14 19:00N 33°53' W 118°31'3 5.8
2017-Oct-14 18:31N 33°50' W 118°33'4 6.9
2017-Oct-14 17:58N 33°54' W 118°30'4 0.2
2017-Oct-14 01:06N 33°53' W 118°26'0 1.5
2017-Oct-14 01:00N 33°53' W 118°26'0 0.4
2017-Oct-14 00:25N 33°53' W 118°25'10 1.7
2017-Oct-13 18:41N 33°55' W 118°37'2 6.0
2017-Oct-13 18:23N 33°56' W 118°36'3 8.1
2017-Oct-13 18:00N 33°57' W 118°32'5 0.1
2017-Oct-11 17:11N 33°59' W 118°27'0 0.1
2017-Oct-11 16:44N 33°59' W 118°27'1 0.0
2017-Oct-09 19:02N 33°58' W 118°27'1 0.0
2017-Oct-08 23:18N 33°58' W 118°27'2 5.7
2017-Oct-08 23:00N 33°57' W 118°28'3 6.8
2017-Oct-08 22:30N 33°55' W 118°32'2 4.9
2017-Oct-08 22:00N 33°54' W 118°34'4 7.1
2017-Oct-08 21:30N 33°58' W 118°34'4 7.6
2017-Oct-08 21:00N 33°58' W 118°29'1 0.5
2017-Oct-08 19:33N 33°58' W 118°28'0 9.0
2017-Oct-08 19:31N 33°58' W 118°29'4 8.4
2017-Oct-08 19:00N 33°57' W 118°34'3 6.5
2017-Oct-08 18:30N 33°55' W 118°36'3 6.5
2017-Oct-08 18:00N 33°55' W 118°32'4 7.9
2017-Oct-08 17:30N 33°57' W 118°28'2 0.8
2017-Oct-08 15:29N 33°58' W 118°27'0 0.0
2017-Oct-08 14:24N 33°58' W 118°27'0 0.0
2017-Oct-08 13:55N 33°58' W 118°27'0 0.0
2017-Oct-07 23:18N 33°58' W 118°27'2 7.8
2017-Oct-07 23:00N 33°57' W 118°30'4 7.4
2017-Oct-07 22:30N 33°57' W 118°34'3 2.1
2017-Oct-07 20:59N 33°57' W 118°30'2 1.9
2017-Oct-07 19:49N 33°58' W 118°27'3 8.2
2017-Oct-07 19:30N 33°56' W 118°29'7 9.0
2017-Oct-07 18:47N 33°51' W 118°35'9 0.5
2017-Oct-06 22:55N 33°58' W 118°28'4 9.2
2017-Oct-06 22:30N 33°58' W 118°32'3 5.1
2017-Oct-06 22:00N 33°55' W 118°32'3 5.4
2017-Oct-06 21:22N 33°55' W 118°28'1 3.8
2017-Oct-06 21:00N 33°56' W 118°28'2 2.0
2017-Oct-06 19:51N 33°59' W 118°27'1 3.5
2017-Oct-06 19:30N 33°58' W 118°28'0 0.3
2017-Oct-06 18:46N 33°58' W 118°28'2 1.7
2017-Oct-06 17:34N 33°58' W 118°30'1 8.5
2017-Oct-06 17:30N 33°58' W 118°30'  
Track history (hours):
 
Tides and Currents Weather Stations Pressure Air Temp Water Temp Dewpoint Dewpoint Depression Visibility Wind Speed Wind Dir Waves Ship Positions

Matt Walsh

Owner: Big Whale, Inc., Manhattan Beach, CA. More information available from US FCC via Universal Licensing System and Coast Guard Vessel Documentation Center.

Last reported at 2017-Oct-15 23:22 UTC. Time now 2017-Oct-18 18:40 UTC.
Position N 33°58' W 118°27'.

Length 20 m; draft 3.3 m.

Type: Fishing. MMSI: 367607590.

Date/timePositionNaut miles runAvg speedWind from/ knotsBaromVisibWave heightAir tempDewpointWater temp
2017-Oct-15 23:22N 33°58' W 118°27'1 0.0
2017-Oct-15 00:13N 33°58' W 118°27'0 0.5
2017-Oct-15 00:00N 33°58' W 118°27'0 0.9
2017-Oct-14 23:30N 33°59' W 118°27'2 5.0
2017-Oct-14 23:01N 33°57' W 118°29'5 9.3
2017-Oct-14 22:30N 33°56' W 118°35'2 4.3
2017-Oct-14 22:01N 33°58' W 118°35'2 4.4
2017-Oct-14 21:30N 33°58' W 118°33'4 2.3
2017-Oct-14 19:34N 33°57' W 118°28'1 8.7
2017-Oct-14 19:30N 33°56' W 118°28'4 8.1
2017-Oct-14 19:00N 33°53' W 118°31'3 5.8
2017-Oct-14 18:31N 33°50' W 118°33'4 6.9
2017-Oct-14 17:58N 33°54' W 118°30'4 0.2
2017-Oct-14 01:06N 33°53' W 118°26'0 1.5
2017-Oct-14 01:00N 33°53' W 118°26'0 0.4
2017-Oct-14 00:25N 33°53' W 118°25'10 1.7
2017-Oct-13 18:41N 33°55' W 118°37'2 6.0
2017-Oct-13 18:23N 33°56' W 118°36'3 8.1
2017-Oct-13 18:00N 33°57' W 118°32'5 0.1
2017-Oct-11 17:11N 33°59' W 118°27'0 0.1
2017-Oct-11 16:44N 33°59' W 118°27'1 0.0
2017-Oct-09 19:02N 33°58' W 118°27'1 0.0
2017-Oct-08 23:18N 33°58' W 118°27'2 5.7
2017-Oct-08 23:00N 33°57' W 118°28'3 6.8
2017-Oct-08 22:30N 33°55' W 118°32'2 4.9
2017-Oct-08 22:00N 33°54' W 118°34'4 7.1
2017-Oct-08 21:30N 33°58' W 118°34'4 7.6
2017-Oct-08 21:00N 33°58' W 118°29'1 0.5
2017-Oct-08 19:33N 33°58' W 118°28'0 9.0
2017-Oct-08 19:31N 33°58' W 118°29'4 8.4
2017-Oct-08 19:00N 33°57' W 118°34'3 6.5
2017-Oct-08 18:30N 33°55' W 118°36'3 6.5
2017-Oct-08 18:00N 33°55' W 118°32'4 7.9
2017-Oct-08 17:30N 33°57' W 118°28'2 0.8
2017-Oct-08 15:29N 33°58' W 118°27'0 0.0
2017-Oct-08 14:24N 33°58' W 118°27'0 0.0
2017-Oct-08 13:55N 33°58' W 118°27'0 0.0
2017-Oct-07 23:18N 33°58' W 118°27'2 7.8
2017-Oct-07 23:00N 33°57' W 118°30'4 7.4
2017-Oct-07 22:30N 33°57' W 118°34'3 2.1
2017-Oct-07 20:59N 33°57' W 118°30'2 1.9
2017-Oct-07 19:49N 33°58' W 118°27'3 8.2
2017-Oct-07 19:30N 33°56' W 118°29'7 9.0
2017-Oct-07 18:47N 33°51' W 118°35'9 0.5
2017-Oct-06 22:55N 33°58' W 118°28'4 9.2
2017-Oct-06 22:30N 33°58' W 118°32'3 5.1
2017-Oct-06 22:00N 33°55' W 118°32'3 5.4
2017-Oct-06 21:22N 33°55' W 118°28'1 3.8
2017-Oct-06 21:00N 33°56' W 118°28'2 2.0
2017-Oct-06 19:51N 33°59' W 118°27'1 3.5
2017-Oct-06 19:30N 33°58' W 118°28'0 0.3
2017-Oct-06 18:46N 33°58' W 118°28'2 1.7
2017-Oct-06 17:34N 33°58' W 118°30'1 8.5
2017-Oct-06 17:30N 33°58' W 118°30'  

Dump ship's entire track history